| time (UTC) | temp C | wind direction | speed KPH | gust KPH | rain 1hr cm | rain 24hr cm | rain mn cm | humidity % | barometer mb |
| 20260507221730 | 11 | 225 | 0.0 | 0.0 | 0.00 | 0.41 | 0.00 | 92 | 1012.8 |
| 20260507220227 | 11 | 225 | 0.0 | 0.0 | 0.00 | 0.41 | 0.10 | 92 | 1012.8 |
| 20260507214726 | 11 | 224 | 0.0 | 0.0 | 0.00 | 0.41 | 0.10 | 91 | 1012.7 |
| 20260507213228 | 11 | 225 | 0.0 | 0.0 | 0.00 | 0.41 | 0.10 | 91 | 1012.6 |
| 20260507211727 | 11 | 224 | 0.0 | 0.0 | 0.00 | 0.41 | 0.10 | 91 | 1012.6 |
| 20260507210226 | 11 | 224 | 3.2 | 4.8 | 0.00 | 0.41 | 0.10 | 90 | 1012.5 |
| 20260507204727 | 12 | 225 | 0.0 | 0.0 | 0.00 | 0.41 | 0.10 | 90 | 1012.2 |
| 20260507203233 | 12 | 225 | 0.0 | 0.0 | 0.00 | 0.41 | 0.10 | 89 | 1012.4 |
| 20260507201733 | 12 | 225 | 0.0 | 0.0 | 0.00 | 0.41 | 0.10 | 87 | 1012.1 |
| 20260507200216 | 12 | 225 | 1.6 | 3.2 | 0.00 | 0.51 | 0.10 | 85 | 1011.9 |
| 20260507193222 | 13 | 224 | 0.0 | 0.0 | 0.00 | 0.51 | 0.10 | 80 | 1011.4 |
| 20260507191724 | 15 | 224 | 0.0 | 0.0 | 0.00 | 0.51 | 0.10 | 77 | 1011.2 |
| 20260507190230 | 16 | 224 | 0.0 | 0.0 | 0.00 | 0.51 | 0.10 | 72 | 1011.0 |
| 20260507184731 | 17 | 225 | 0.0 | 0.0 | 0.00 | 0.51 | 0.10 | 68 | 1010.9 |
| 20260507183230 | 18 | 224 | 0.0 | 0.0 | 0.00 | 0.51 | 0.10 | 60 | 1010.8 |
| 20260507181715 | 19 | 224 | 0.0 | 0.0 | 0.00 | 0.51 | 0.10 | 57 | 1010.7 |
| 20260507180218 | 20 | 224 | 0.0 | 6.4 | 0.00 | 0.51 | 0.10 | 51 | 1010.5 |
| 20260507174721 | 21 | 224 | 4.8 | 8.0 | 0.00 | 0.51 | 0.10 | 49 | 1010.3 |
| 20260507173227 | 22 | 236 | 1.6 | 8.0 | 0.00 | 0.51 | 0.10 | 47 | 1010.2 |
| 20260507171730 | 22 | 211 | 3.2 | 8.0 | 0.00 | 0.51 | 0.10 | 48 | 1010.1 |
| 20260507170230 | 22 | 274 | 1.6 | 4.8 | 0.00 | 0.51 | 0.10 | 46 | 1010.1 |
| 20260507164716 | 22 | 254 | 3.2 | 8.0 | 0.00 | 0.51 | 0.10 | 44 | 1010.0 |
| 20260507163219 | 22 | 177 | 1.6 | 6.4 | 0.00 | 0.51 | 0.10 | 47 | 1009.9 |
| 20260507161719 | 21 | 250 | 4.8 | 11.3 | 0.00 | 0.51 | 0.10 | 48 | 1009.9 |
| 20260507160223 | 21 | 247 | 4.8 | 11.3 | 0.00 | 6.60 | 0.10 | 47 | 1010.0 |
| 20260507154722 | 21 | 203 | 6.4 | 9.7 | 0.00 | 6.60 | 0.10 | 49 | 1010.0 |
| 20260507153222 | 21 | 148 | 8.0 | 11.3 | 0.00 | 6.60 | 0.10 | 47 | 1010.0 |
| 20260507151721 | 21 | 181 | 4.8 | 12.9 | 0.00 | 6.60 | 0.10 | 49 | 1010.0 |
| 20260507150228 | 21 | 146 | 8.0 | 12.9 | 0.00 | 8.00 | 0.10 | 51 | 1010.0 |
| 20260507144728 | 21 | 252 | 6.4 | 14.5 | 0.00 | 8.00 | 0.10 | 49 | 1010.1 |
| 20260507143229 | 21 | 179 | 6.4 | 14.5 | 0.00 | 8.00 | 0.10 | 52 | 1010.2 |
| 20260507141733 | 21 | 211 | 6.4 | 14.5 | 0.00 | 8.00 | 0.10 | 53 | 1010.3 |
| 20260507140232 | 20 | 227 | 3.2 | 12.9 | 0.00 | 8.31 | 0.10 | 54 | 1010.4 |
| 20260507134715 | 21 | 298 | 3.2 | 12.9 | 0.00 | 8.31 | 0.10 | 51 | 1010.4 |
| 20260507133221 | 21 | 184 | 8.0 | 14.5 | 0.00 | 8.31 | 0.10 | 54 | 1010.6 |
| 20260507131723 | 20 | 348 | 3.2 | 9.7 | 0.00 | 8.31 | 0.10 | 55 | 1010.7 |
| 20260507130222 | 21 | 173 | 6.4 | 14.5 | 0.00 | 8.31 | 0.10 | 57 | 1010.8 |
| 20260507124728 | 21 | 169 | 8.0 | 22.5 | 0.00 | 8.31 | 0.10 | 56 | 1010.9 |
| 20260507123228 | 21 | 236 | 6.4 | 16.1 | 0.00 | 8.31 | 0.10 | 58 | 1010.9 |
| 20260507121728 | 20 | 157 | 4.8 | 16.1 | 0.00 | 8.31 | 0.10 | 61 | 1011.0 |
| 20260507120234 | 20 | 285 | 3.2 | 11.3 | 0.00 | 8.31 | 0.10 | 56 | 1011.2 |
| 20260507114718 | 19 | 309 | 8.0 | 14.5 | 0.00 | 8.31 | 0.10 | 59 | 1011.2 |
| 20260507113219 | 20 | 264 | 3.2 | 8.0 | 0.00 | 8.31 | 0.10 | 62 | 1011.4 |
| 20260507111727 | 18 | 290 | 4.8 | 12.9 | 0.00 | 8.31 | 0.10 | 63 | 1011.6 |
| 20260507110229 | 18 | 159 | 3.2 | 9.7 | 0.00 | 8.31 | 0.10 | 64 | 1011.6 |
| 20260507104731 | 17 | 302 | 3.2 | 8.0 | 0.00 | 8.31 | 0.10 | 66 | 1011.8 |
| 20260507103216 | 18 | 302 | 3.2 | 8.0 | 0.00 | 8.31 | 0.10 | 67 | 1011.9 |
| 20260507101719 | 18 | 284 | 3.2 | 6.4 | 0.00 | 8.31 | 0.10 | 67 | 1012.0 |
| 20260507100221 | 19 | 232 | 6.4 | 14.5 | 0.00 | 8.41 | 0.10 | 64 | 1012.0 |
| 20260507094724 | 19 | 166 | 6.4 | 11.3 | 0.00 | 8.41 | 0.10 | 64 | 1012.0 |
| 20260507093230 | 18 | 186 | 3.2 | 11.3 | 0.00 | 8.41 | 0.10 | 66 | 1012.0 |
| 20260507091732 | 18 | 200 | 4.8 | 8.0 | 0.00 | 8.41 | 0.10 | 71 | 1011.9 |
| 20260507090232 | 17 | 167 | 3.2 | 8.0 | 0.00 | 8.41 | 0.10 | 73 | 1012.0 |
| 20260507084719 | 17 | 159 | 6.4 | 9.7 | 0.00 | 8.41 | 0.10 | 76 | 1012.0 |
| 20260507083220 | 17 | 161 | 4.8 | 8.0 | 0.10 | 8.41 | 0.10 | 74 | 1012.0 |
| 20260507081723 | 17 | 198 | 0.0 | 3.2 | 0.10 | 8.41 | 0.10 | 75 | 1011.9 |
| 20260507080225 | 16 | 198 | 1.6 | 3.2 | 0.10 | 8.41 | 0.10 | 80 | 1011.8 |
| 20260507074726 | 14 | 198 | 0.0 | 3.2 | 0.10 | 8.41 | 0.10 | 86 | 1011.7 |
| 20260507073227 | 14 | 198 | 3.2 | 6.4 | 0.00 | 8.31 | 0.08 | 87 | 1011.7 |
| 20260507071731 | 14 | 322 | 1.6 | 3.2 | 0.00 | 8.31 | 0.08 | 86 | 1011.6 |
| 20260507070233 | 14 | 322 | 0.0 | 0.0 | 0.00 | 8.31 | 0.08 | 86 | 1011.4 |
| 20260507064715 | 13 | 322 | 0.0 | 0.0 | 0.00 | 8.31 | 0.08 | 91 | 1011.2 |
| 20260507063221 | 12 | 323 | 1.6 | 4.8 | 0.00 | 8.31 | 0.08 | 91 | 1011.2 |
| 20260507061722 | 12 | 322 | 3.2 | 4.8 | 0.00 | 8.31 | 0.08 | 93 | 1011.1 |
| 20260507060224 | 11 | 338 | 3.2 | 4.8 | 0.00 | 8.31 | 0.08 | 94 | 1010.9 |
| 20260507054731 | 11 | 331 | 0.0 | 3.2 | 0.00 | 8.31 | 0.08 | 94 | 1010.8 |
| 20260507053232 | 11 | 331 | 3.2 | 4.8 | 0.10 | 8.31 | 0.08 | 93 | 1010.7 |
| 20260507051734 | 11 | 331 | 1.6 | 3.2 | 0.10 | 8.31 | 0.08 | 93 | 1010.6 |
| 20260507050220 | 11 | 316 | 1.6 | 3.2 | 0.20 | 8.31 | 0.08 | 93 | 1010.4 |
| 20260507044722 | 11 | 316 | 1.6 | 3.2 | 0.20 | 8.31 | 0.08 | 93 | 1010.3 |
| 20260507043221 | 11 | 316 | 0.0 | 3.2 | 0.10 | 8.20 | 0.05 | 92 | 1010.2 |
| 20260507041722 | 11 | 316 | 1.6 | 3.2 | 0.10 | 8.20 | 0.05 | 91 | 1010.0 |
| 20260507040226 | 11 | 316 | 0.0 | 6.4 | 0.10 | 8.10 | 0.03 | 89 | 1009.9 |
| 20260507034728 | 11 | 323 | 1.6 | 4.8 | 0.10 | 8.10 | 0.03 | 90 | 1009.8 |
| 20260507033227 | 11 | 317 | 3.2 | 8.0 | 0.10 | 8.10 | 0.03 | 89 | 1009.8 |
| 20260507031733 | 11 | 314 | 4.8 | 8.0 | 0.10 | 8.10 | 0.03 | 89 | 1009.8 |
| 20260507030234 | 11 | 344 | 3.2 | 4.8 | 0.00 | 8.00 | 0.00 | 90 | 1009.8 |
| 20260507024733 | 11 | 344 | 6.4 | 9.7 | 0.00 | 8.00 | 0.00 | 89 | 1009.8 |
| 20260507023219 | 11 | 325 | 4.8 | 8.0 | 0.00 | 8.00 | 0.00 | 90 | 1009.9 |
| 20260507021721 | 11 | 317 | 6.4 | 9.7 | 0.00 | 8.00 | 0.00 | 91 | 1009.9 |
| 20260507020222 | 11 | 303 | 4.8 | 9.7 | 0.00 | 8.00 | 0.00 | 93 | 1010.0 |
| 20260507014724 | 11 | 314 | 3.2 | 4.8 | 0.00 | 8.00 | 0.00 | 93 | 1009.9 |
| 20260507013225 | 11 | 313 | 0.0 | 3.2 | 0.00 | 8.00 | 0.00 | 93 | 1009.7 |
| 20260507011726 | 11 | 314 | 4.8 | 4.8 | 0.00 | 8.00 | 0.00 | 93 | 1009.7 |
| 20260507010233 | 11 | 321 | 1.6 | 3.2 | 0.00 | 8.00 | 0.00 | 92 | 1009.6 |
| 20260507004735 | 11 | 322 | 0.0 | 3.2 | 0.00 | 8.00 | 0.00 | 91 | 1009.5 |
| 20260507003217 | 12 | 322 | 1.6 | 4.8 | 0.00 | 8.00 | 0.00 | 90 | 1009.3 |
| 20260507001722 | 12 | 323 | 1.6 | 3.2 | 0.00 | 8.00 | 0.00 | 87 | 1009.4 |
| 20260507000223 | 12 | 322 | 3.2 | 8.0 | 0.00 | 8.00 | 0.00 | 88 | 1009.5 |
| 20260506234724 | 11 | 316 | 4.8 | 8.0 | 0.00 | 8.00 | 0.00 | 91 | 1009.4 |
| 20260506233226 | 11 | 19 | 3.2 | 4.8 | 0.00 | 8.00 | 0.00 | 93 | 1009.4 |
| 20260506231732 | 11 | 19 | 1.6 | 3.2 | 0.00 | 8.00 | 0.00 | 93 | 1009.4 |
| 20260506230233 | 11 | 19 | 0.0 | 0.0 | 0.00 | 8.00 | 0.00 | 92 | 1009.3 |
| 20260506224716 | 11 | 19 | 1.6 | 1.6 | 0.00 | 8.00 | 0.00 | 92 | 1009.2 |
| 20260506223222 | 11 | 19 | 1.6 | 4.8 | 0.00 | 8.00 | 0.00 | 91 | 1009.1 |